Sparta, WI

4:13 PM CDT on July 24, 2016 (GMT -0500)
Sparta-Fort McCoy | | Change Station

Elev 837 ft 43.96 °N, 90.74 °W | Updated 18 minutes ago

Clear
Clear
87 °F
Feels Like 89 °F
N
9
Wind Variable Wind from West

Today
High -- | Low -- °F
--% Chance of Precip.
Yesterday
High -- | Low -- °F
Precip. -- in
Pressure 29.87 in
Visibility 10.0 miles
Clouds Clear
Heat Index 89 °F
Dew Point 66 °F
Humidity 49%
Rainfall 0.00 in
Snow Depth Not available.
5:43 AM 8:35 PM
Waning Gibbous, 73% visible
METAR KCMY 242055Z AUTO 26008KT 10SM CLR 30/19 A2987 RMK AO2 T03040187
Pressure 29.87 in
Visibility 10.0 miles
Clouds Clear
Heat Index 89 °F
Dew Point 66 °F
Humidity 49%
Rainfall 0.00 in
Snow Depth Not available.
5:43 AM 8:35 PM
Waning Gibbous, 73% visible
METAR KCMY 242055Z AUTO 26008KT 10SM CLR 30/19 A2987 RMK AO2 T03040187

10-Day Weather Forecast

Almanac

Astronomy

Jul. 24, 2016 Rise Set
Actual Time
Civil Twilight
Nautical Twilight
Astronomical Twilight
Moon
Length of Visible Light
Length of Day
Tomorrow will be .
, % of the Moon is Illuminated

Today's Extremes

State Highs State Lows

Community

WunderPhotos

Upload Photos

1,927,191 photos uploaded!

WunderBlog® & News

Nearby

Air Quality

  Air Quality AQ Index Pollutant
Not available.

Snow Depth

Station Depth Elevation

Earthquake Activity

City Distance Mag. Time & Date
Minimum magnitude displayed is 2.5.

Coastal Water Temperatures

Place Temperature

Stations

Nearby Weather Stations

Station Location Temp. Windchill Dew Point Humidity Wind Precip. Elev Updated Type
                   

Watches & Warnings

There are currently no watches in effect.